createdAt,value
2023-03-21T00:01:30.012Z,94.90
2023-03-21T00:03:56.975Z,94.90
2023-03-21T00:06:23.938Z,94.90
2023-03-21T00:08:51.172Z,94.90
2023-03-21T00:11:18.277Z,94.90
2023-03-21T00:13:45.238Z,94.90
2023-03-21T00:16:24.391Z,94.90
2023-03-21T00:18:58.376Z,95.00
2023-03-21T00:24:15.463Z,94.90
2023-03-21T00:26:42.356Z,94.90
2023-03-21T00:29:09.518Z,94.90
2023-03-21T00:31:36.486Z,94.90
2023-03-21T00:34:04.227Z,94.90
2023-03-21T00:36:31.959Z,94.90
2023-03-21T00:39:00.782Z,94.80
2023-03-21T00:41:41.590Z,94.80
2023-03-21T00:44:13.706Z,94.80
2023-03-21T00:46:47.235Z,94.90
2023-03-21T00:49:16.268Z,94.80
2023-03-21T00:51:43.719Z,94.80
2023-03-21T00:54:12.518Z,94.90
2023-03-21T00:56:41.220Z,95.00
2023-03-21T00:59:08.116Z,94.90
2023-03-21T01:01:36.580Z,95.00
2023-03-21T01:04:07.658Z,95.00
2023-03-21T01:06:39.524Z,95.10
2023-03-21T01:09:11.147Z,95.20
2023-03-21T01:11:38.096Z,95.20
2023-03-21T01:14:20.770Z,95.20
2023-03-21T01:16:49.442Z,95.20
2023-03-21T01:19:27.611Z,95.20
2023-03-21T01:21:58.561Z,95.20
2023-03-21T01:24:25.860Z,95.20
2023-03-21T01:26:52.772Z,95.20
2023-03-21T01:29:19.760Z,95.30
2023-03-21T01:31:46.731Z,95.20
2023-03-21T01:34:13.699Z,95.20
2023-03-21T01:36:41.545Z,95.30
2023-03-21T01:39:14.084Z,95.30
2023-03-21T01:41:44.374Z,95.60
2023-03-21T01:44:23.319Z,95.20
2023-03-21T01:47:07.382Z,95.20
2023-03-21T01:49:59.582Z,95.20
2023-03-21T01:52:38.719Z,95.20
2023-03-21T01:55:12.418Z,95.20
2023-03-21T01:58:07.013Z,95.20
2023-03-21T02:00:51.358Z,95.20
2023-03-21T02:03:49.999Z,95.20
2023-03-21T02:06:57.654Z,95.20
2023-03-21T02:09:49.294Z,95.10
2023-03-21T02:12:20.232Z,95.10
2023-03-21T02:14:50.025Z,95.00
2023-03-21T02:17:41.937Z,95.10
2023-03-21T02:20:58.514Z,95.10
2023-03-21T02:24:29.542Z,95.10
2023-03-21T02:27:15.819Z,95.10
2023-03-21T02:30:49.027Z,95.10
2023-03-21T02:33:46.574Z,95.10
2023-03-21T02:36:27.902Z,95.10
2023-03-21T02:39:07.921Z,95.10
2023-03-21T02:42:21.550Z,95.10
2023-03-21T02:45:03.149Z,95.10
2023-03-21T02:48:10.053Z,95.10
2023-03-21T02:50:49.353Z,95.20
2023-03-21T02:53:22.720Z,95.10
2023-03-21T02:55:52.914Z,95.20
2023-03-21T02:58:23.534Z,95.20
2023-03-21T03:00:56.246Z,95.20
2023-03-21T03:03:34.430Z,95.10
2023-03-21T03:06:27.655Z,95.10
2023-03-21T03:09:07.602Z,95.10
2023-03-21T03:11:42.847Z,95.10
2023-03-21T03:14:46.943Z,95.40
2023-03-21T03:17:52.699Z,95.10
2023-03-21T03:20:53.856Z,95.10
2023-03-21T03:23:41.989Z,95.10
2023-03-21T03:26:13.945Z,95.10
2023-03-21T03:28:47.854Z,95.00
2023-03-21T03:31:26.043Z,95.00
2023-03-21T03:34:07.123Z,95.10
2023-03-21T03:36:43.617Z,95.10
2023-03-21T03:39:15.487Z,95.10
2023-03-21T03:42:21.877Z,95.10
2023-03-21T03:44:42.283Z,95.10
2023-03-21T03:47:32.385Z,95.10
2023-03-21T03:50:27.715Z,95.30
2023-03-21T03:53:09.891Z,95.20
2023-03-21T03:55:44.162Z,95.20
2023-03-21T03:58:23.575Z,95.10
2023-03-21T04:00:54.285Z,95.20
2023-03-21T04:03:21.993Z,95.50
2023-03-21T04:05:50.351Z,95.20
2023-03-21T04:08:17.693Z,95.20
2023-03-21T04:10:50.228Z,95.20
2023-03-21T04:13:17.944Z,95.50
2023-03-21T04:15:51.957Z,95.20
2023-03-21T04:18:18.916Z,95.20
2023-03-21T04:20:48.455Z,95.20
2023-03-21T04:23:16.257Z,95.30
2023-03-21T04:25:55.898Z,95.30
2023-03-21T04:28:27.520Z,95.30
2023-03-21T04:31:16.085Z,95.30
2023-03-21T04:33:51.368Z,95.30
2023-03-21T04:36:27.474Z,95.30
2023-03-21T04:39:01.478Z,95.30
2023-03-21T04:41:29.625Z,95.40
2023-03-21T04:43:57.234Z,95.40
2023-03-21T04:46:24.539Z,95.40
2023-03-21T04:48:51.817Z,95.40
2023-03-21T04:51:18.742Z,95.40
2023-03-21T04:53:49.312Z,95.40
2023-03-21T04:56:16.527Z,95.40
2023-03-21T04:58:45.344Z,95.40
2023-03-21T05:01:14.457Z,95.40
2023-03-21T05:03:42.396Z,95.40
2023-03-21T05:06:10.278Z,95.40
2023-03-21T05:08:37.418Z,95.40
2023-03-21T05:11:05.549Z,95.30
2023-03-21T05:13:32.545Z,95.30
2023-03-21T05:15:59.442Z,95.30
2023-03-21T05:18:26.669Z,95.30
2023-03-21T05:21:10.757Z,95.20
2023-03-21T05:23:39.542Z,95.20
2023-03-21T05:26:08.337Z,95.30
2023-03-21T05:28:44.549Z,95.30
2023-03-21T05:31:15.747Z,95.20
2023-03-21T05:33:45.390Z,95.20
2023-03-21T05:36:16.096Z,95.20
2023-03-21T05:38:45.680Z,95.20
2023-03-21T05:41:15.463Z,95.20
2023-03-21T05:43:42.606Z,95.20
2023-03-21T05:46:11.860Z,95.20
2023-03-21T05:48:39.263Z,95.20
2023-03-21T05:51:15.212Z,95.10
2023-03-21T05:53:42.216Z,95.10
2023-03-21T05:56:09.837Z,95.10
2023-03-21T05:58:50.589Z,95.10
2023-03-21T06:01:18.827Z,95.00
2023-03-21T06:03:55.715Z,95.10
2023-03-21T06:06:24.350Z,95.00
2023-03-21T06:09:00.923Z,95.10
2023-03-21T06:11:33.247Z,95.10
2023-03-21T06:14:21.080Z,95.10
2023-03-21T06:17:05.995Z,95.20
2023-03-21T06:19:35.876Z,95.20
2023-03-21T06:22:07.456Z,95.20
2023-03-21T06:24:38.080Z,95.20
2023-03-21T06:27:05.410Z,95.20
2023-03-21T06:29:46.333Z,95.10
2023-03-21T06:32:13.761Z,95.10
2023-03-21T06:34:41.236Z,95.00
2023-03-21T06:37:10.015Z,95.00
2023-03-21T06:39:37.508Z,95.00
2023-03-21T06:42:04.661Z,95.00
2023-03-21T06:44:31.553Z,95.00
2023-03-21T06:47:03.515Z,94.90
2023-03-21T06:49:30.859Z,94.90
2023-03-21T06:52:05.263Z,95.00
2023-03-21T06:54:32.295Z,94.90
2023-03-21T06:57:02.663Z,95.00
2023-03-21T06:59:33.525Z,94.90
2023-03-21T07:02:07.246Z,94.80
2023-03-21T07:04:40.581Z,94.80
2023-03-21T07:07:12.469Z,94.90
2023-03-21T07:09:40.823Z,94.90
2023-03-21T07:12:07.872Z,94.80
2023-03-21T07:14:55.222Z,94.80
2023-03-21T07:17:22.159Z,94.70
2023-03-21T07:19:49.055Z,94.80
2023-03-21T07:22:18.557Z,94.90
2023-03-21T07:24:55.941Z,94.80
2023-03-21T07:27:26.132Z,94.70
2023-03-21T07:29:53.036Z,94.70
2023-03-21T07:32:19.942Z,94.60
2023-03-21T07:34:46.965Z,94.60
2023-03-21T07:37:14.108Z,94.40
2023-03-21T07:39:41.140Z,94.40
2023-03-21T07:44:40.336Z,94.30
2023-03-21T07:47:07.249Z,94.50
2023-03-21T07:49:34.150Z,94.60
2023-03-21T07:52:04.306Z,94.60
2023-03-21T07:54:31.871Z,94.60
2023-03-21T07:56:58.798Z,94.60
2023-03-21T07:59:25.731Z,94.60
2023-03-21T08:01:52.681Z,94.60
2023-03-21T08:04:19.587Z,94.70
2023-03-21T08:06:46.545Z,94.70
2023-03-21T08:09:13.444Z,94.80
2023-03-21T08:11:41.246Z,94.90
2023-03-21T08:14:08.178Z,94.90
2023-03-21T08:16:35.134Z,94.90
2023-03-21T08:19:02.139Z,94.90
2023-03-21T08:21:29.086Z,95.30
2023-03-21T08:23:55.969Z,95.00
2023-03-21T08:26:25.145Z,94.90
2023-03-21T08:28:52.308Z,94.80
2023-03-21T08:31:21.779Z,94.90
2023-03-21T08:33:53.704Z,95.00
2023-03-21T08:36:22.328Z,94.70
2023-03-21T08:38:53.956Z,94.60
2023-03-21T08:41:22.136Z,94.60
2023-03-21T08:43:49.564Z,94.50
2023-03-21T08:46:16.804Z,94.40
2023-03-21T08:48:43.773Z,94.50
2023-03-21T08:51:10.706Z,94.40
2023-03-21T08:53:38.025Z,94.40
2023-03-21T08:56:05.061Z,94.60
2023-03-21T08:58:31.982Z,94.70
2023-03-21T09:00:58.855Z,94.60
2023-03-21T09:03:27.354Z,94.70
2023-03-21T09:05:54.928Z,94.60
2023-03-21T09:08:23.511Z,94.60
2023-03-21T09:10:54.313Z,94.60
2023-03-21T09:13:21.610Z,94.30
2023-03-21T09:15:48.556Z,94.30
2023-03-21T09:18:18.085Z,94.30
2023-03-21T09:20:47.256Z,94.40
2023-03-21T09:23:15.269Z,94.40
2023-03-21T09:25:45.415Z,93.90
2023-03-21T09:28:13.163Z,93.70
2023-03-21T09:30:40.180Z,93.80
2023-03-21T09:33:08.851Z,93.60
2023-03-21T09:35:36.251Z,93.40
2023-03-21T09:38:04.067Z,93.50
2023-03-21T09:41:17.055Z,93.30
2023-03-21T09:44:24.621Z,93.10
2023-03-21T09:47:28.902Z,92.80
2023-03-21T09:50:13.578Z,92.80
2023-03-21T09:52:58.163Z,93.00
2023-03-21T09:55:34.759Z,92.80
2023-03-21T09:58:15.206Z,92.80
2023-03-21T10:00:48.080Z,92.90
2023-03-21T10:03:27.392Z,92.70
2023-03-21T10:06:00.667Z,92.60
2023-03-21T10:08:41.462Z,92.70
2023-03-21T10:11:24.800Z,92.50
2023-03-21T10:14:03.366Z,92.20
2023-03-21T10:16:40.813Z,92.10
2023-03-21T10:19:15.289Z,92.10
2023-03-21T10:22:00.369Z,92.00
2023-03-21T10:24:31.073Z,92.20
2023-03-21T10:26:58.132Z,92.20
2023-03-21T10:29:32.963Z,92.40
2023-03-21T10:32:00.484Z,92.50
2023-03-21T10:34:49.102Z,92.30
2023-03-21T10:37:16.863Z,92.40
2023-03-21T10:39:48.787Z,92.50
2023-03-21T10:42:24.904Z,92.20
2023-03-21T10:44:56.397Z,92.20
2023-03-21T10:47:30.784Z,92.20
2023-03-21T10:50:09.829Z,91.80
2023-03-21T10:52:45.545Z,91.60
2023-03-21T10:55:26.095Z,91.50
2023-03-21T10:58:18.730Z,91.10
2023-03-21T11:00:46.484Z,91.30
2023-03-21T11:03:24.992Z,91.30
2023-03-21T11:06:01.778Z,91.10
2023-03-21T11:08:29.611Z,91.20
2023-03-21T11:11:05.678Z,91.40
2023-03-21T11:13:44.567Z,91.60
2023-03-21T11:16:23.240Z,91.40
2023-03-21T11:18:52.819Z,91.50
2023-03-21T11:21:21.622Z,91.40
2023-03-21T11:23:52.775Z,91.60
2023-03-21T11:26:30.682Z,91.50
2023-03-21T11:28:58.208Z,91.70
2023-03-21T11:31:40.094Z,91.80
2023-03-21T11:34:09.156Z,91.80
2023-03-21T11:36:39.177Z,91.70
2023-03-21T11:39:31.637Z,91.70
2023-03-21T11:41:58.626Z,91.60
2023-03-21T11:44:35.687Z,91.40
2023-03-21T11:47:03.111Z,91.50
2023-03-21T11:49:31.008Z,91.60
2023-03-21T11:52:12.391Z,91.50
2023-03-21T11:55:19.018Z,91.60
2023-03-21T11:58:30.743Z,91.50
2023-03-21T12:01:42.006Z,92.10
2023-03-21T12:04:36.966Z,91.70
2023-03-21T12:07:28.055Z,91.30
2023-03-21T12:10:28.135Z,91.40
2023-03-21T12:13:17.033Z,91.20
2023-03-21T12:16:13.694Z,91.40
2023-03-21T12:19:12.103Z,91.30
2023-03-21T12:22:16.268Z,91.60
2023-03-21T12:24:54.868Z,91.60
2023-03-21T12:27:30.702Z,91.60
2023-03-21T12:30:53.683Z,91.50
2023-03-21T12:33:32.280Z,91.40
2023-03-21T12:36:17.738Z,91.50
2023-03-21T12:39:18.022Z,91.30
2023-03-21T12:42:02.447Z,91.20
2023-03-21T12:44:37.784Z,91.20
2023-03-21T12:47:15.947Z,91.20
2023-03-21T12:50:12.833Z,91.20
2023-03-21T12:52:44.558Z,91.00
2023-03-21T12:55:21.524Z,91.10
2023-03-21T12:58:04.880Z,90.90
2023-03-21T13:00:38.861Z,91.10
2023-03-21T13:03:13.370Z,91.40
2023-03-21T13:05:55.963Z,91.40
2023-03-21T13:08:57.733Z,91.30
2023-03-21T13:11:29.227Z,91.10
2023-03-21T13:14:06.611Z,91.20
2023-03-21T13:17:00.536Z,91.10
2023-03-21T13:20:00.879Z,91.10
2023-03-21T13:22:31.509Z,91.10
2023-03-21T13:25:16.293Z,90.90
2023-03-21T13:27:46.162Z,91.00
2023-03-21T13:30:28.526Z,91.10
2023-03-21T13:33:13.534Z,91.00
2023-03-21T13:35:44.241Z,91.20
2023-03-21T13:38:25.894Z,91.20
2023-03-21T13:40:59.025Z,91.10
2023-03-21T13:43:54.902Z,91.30
2023-03-21T13:46:38.145Z,91.10
2023-03-21T13:49:10.198Z,91.30
2023-03-21T13:51:37.065Z,91.30
2023-03-21T13:54:19.426Z,91.40
2023-03-21T13:56:50.042Z,91.50
2023-03-21T13:59:43.173Z,91.50
2023-03-21T14:02:33.692Z,91.70
2023-03-21T14:05:07.930Z,91.80
2023-03-21T14:07:44.380Z,91.70
2023-03-21T14:10:28.447Z,91.80
2023-03-21T14:12:55.604Z,91.80
2023-03-21T14:15:31.111Z,91.80
2023-03-21T14:18:15.803Z,92.00
2023-03-21T14:20:57.190Z,92.00
2023-03-21T14:23:24.552Z,91.90
2023-03-21T14:25:52.616Z,91.70
2023-03-21T14:28:29.518Z,91.70
2023-03-21T14:31:00.461Z,91.70
2023-03-21T14:33:39.530Z,91.80
2023-03-21T14:36:17.030Z,91.50
2023-03-21T14:38:47.147Z,91.50
2023-03-21T14:41:25.563Z,91.60
2023-03-21T14:44:27.898Z,91.40
2023-03-21T14:47:05.816Z,91.20
2023-03-21T14:49:36.579Z,91.30
2023-03-21T14:52:09.967Z,91.30
2023-03-21T14:54:41.153Z,91.30
2023-03-21T14:57:14.281Z,91.20
2023-03-21T14:59:42.212Z,91.20
2023-03-21T15:02:20.437Z,91.30
2023-03-21T15:04:54.424Z,91.60
2023-03-21T15:07:34.697Z,91.30
2023-03-21T15:10:07.563Z,91.30
2023-03-21T15:12:34.566Z,91.40
2023-03-21T15:15:03.153Z,91.50
2023-03-21T15:17:30.594Z,91.50
2023-03-21T15:19:57.549Z,91.60
2023-03-21T15:22:39.622Z,91.50
2023-03-21T15:25:14.040Z,91.50
2023-03-21T15:27:43.200Z,91.50
2023-03-21T15:30:24.084Z,91.50
2023-03-21T15:32:51.589Z,91.50
2023-03-21T15:35:39.079Z,91.50
2023-03-21T15:38:06.793Z,91.70
2023-03-21T15:40:35.879Z,91.60
2023-03-21T15:43:17.852Z,91.60
2023-03-21T15:45:56.187Z,91.70
2023-03-21T15:48:28.666Z,91.70
2023-03-21T15:50:55.564Z,91.70
2023-03-21T15:53:24.371Z,91.80
2023-03-21T15:55:56.908Z,91.80
2023-03-21T15:58:34.659Z,91.80
2023-03-21T16:01:08.320Z,91.80
2023-03-21T16:03:37.786Z,91.80
2023-03-21T16:06:12.477Z,91.80
2023-03-21T16:08:53.752Z,91.90
2023-03-21T16:11:28.281Z,92.00
2023-03-21T16:13:56.644Z,92.10
2023-03-21T16:16:27.445Z,92.10
2023-03-21T16:18:57.097Z,92.20
2023-03-21T16:21:30.631Z,92.20
2023-03-21T16:23:58.378Z,92.20
2023-03-21T16:26:32.411Z,92.30
2023-03-21T16:28:59.661Z,92.30
2023-03-21T16:31:30.394Z,92.40
2023-03-21T16:33:57.450Z,92.50
2023-03-21T16:36:26.197Z,92.40
2023-03-21T16:38:54.034Z,92.60
2023-03-21T16:41:23.691Z,92.70
2023-03-21T16:43:52.162Z,92.80
2023-03-21T16:46:25.788Z,92.90
2023-03-21T16:48:56.472Z,92.90
2023-03-21T16:51:30.251Z,92.90
2023-03-21T16:53:57.880Z,93.10
2023-03-21T16:56:39.886Z,93.40
2023-03-21T16:59:08.021Z,93.60
2023-03-21T17:01:38.343Z,93.60
2023-03-21T17:04:05.930Z,93.70
2023-03-21T17:06:33.306Z,93.70
2023-03-21T17:09:00.541Z,94.00
2023-03-21T17:11:31.471Z,94.20
2023-03-21T17:13:58.398Z,94.30
2023-03-21T17:16:27.223Z,94.30
2023-03-21T17:18:54.750Z,94.40
2023-03-21T17:21:28.186Z,94.50
2023-03-21T17:23:56.278Z,94.60
2023-03-21T17:26:27.445Z,94.50
2023-03-21T17:28:56.952Z,94.50
2023-03-21T17:31:26.241Z,94.60
2023-03-21T17:33:53.141Z,94.70
2023-03-21T17:36:28.342Z,94.60
2023-03-21T17:38:55.427Z,94.80
2023-03-21T17:41:22.790Z,94.80
2023-03-21T17:43:51.556Z,94.80
2023-03-21T17:46:25.113Z,94.90
2023-03-21T17:48:52.464Z,94.90
2023-03-21T17:51:19.756Z,94.90
2023-03-21T17:53:50.646Z,95.00
2023-03-21T17:56:23.100Z,95.00
2023-03-21T17:58:50.139Z,95.00
2023-03-21T18:01:17.039Z,95.00
2023-03-21T18:03:44.001Z,95.00
2023-03-21T18:06:18.088Z,95.00
2023-03-21T18:08:46.196Z,95.20
2023-03-21T18:11:13.900Z,95.20
2023-03-21T18:13:42.127Z,95.30
2023-03-21T18:16:17.164Z,95.30
2023-03-21T18:18:46.363Z,95.40
2023-03-21T18:21:19.483Z,95.50
2023-03-21T18:23:47.614Z,95.50
2023-03-21T18:26:23.841Z,95.60
2023-03-21T18:29:36.780Z,95.70
2023-03-21T18:31:38.161Z,95.50
2023-03-21T18:34:05.189Z,95.60
2023-03-21T18:36:32.168Z,95.70
2023-03-21T18:38:59.093Z,95.60
2023-03-21T18:41:25.978Z,95.60
2023-03-21T18:44:05.536Z,95.60
2023-03-21T18:46:41.728Z,95.60
2023-03-21T18:49:51.942Z,95.60
2023-03-21T18:51:55.880Z,95.60
2023-03-21T18:54:23.448Z,95.70
2023-03-21T18:57:34.184Z,95.70
2023-03-21T18:59:39.200Z,95.60
2023-03-21T19:02:07.153Z,95.70
2023-03-21T19:04:34.252Z,95.70
2023-03-21T19:07:01.274Z,95.70
2023-03-21T19:09:31.919Z,95.80
2023-03-21T19:12:03.149Z,95.80
2023-03-21T19:14:30.463Z,95.80
2023-03-21T19:19:45.983Z,95.90
2023-03-21T19:22:12.943Z,95.80
2023-03-21T19:24:40.553Z,96.20
2023-03-21T19:27:07.625Z,95.90
2023-03-21T19:29:34.530Z,95.80
2023-03-21T19:32:01.505Z,95.80
2023-03-21T19:34:29.341Z,95.80
2023-03-21T19:36:57.378Z,95.80
2023-03-21T19:39:25.065Z,95.80
2023-03-21T19:41:55.379Z,95.80
2023-03-21T19:44:32.727Z,95.90
2023-03-21T19:46:59.646Z,95.80
2023-03-21T19:49:48.569Z,95.70
2023-03-21T19:52:13.465Z,95.80
2023-03-21T19:54:40.461Z,95.80
2023-03-21T19:57:09.625Z,95.80
2023-03-21T19:59:36.541Z,95.80
2023-03-21T20:02:27.133Z,96.00
2023-03-21T20:04:51.447Z,95.90
2023-03-21T20:07:18.365Z,95.90
2023-03-21T20:09:52.848Z,95.90
2023-03-21T20:12:21.900Z,95.80
2023-03-21T20:14:49.237Z,95.90
2023-03-21T20:17:16.770Z,95.90
2023-03-21T20:19:43.786Z,96.00
2023-03-21T20:22:21.862Z,96.00
2023-03-21T20:24:55.525Z,96.00
2023-03-21T20:27:25.237Z,96.00
2023-03-21T20:30:10.148Z,96.10
2023-03-21T20:32:43.762Z,96.10
2023-03-21T20:35:21.119Z,96.20
2023-03-21T20:37:54.381Z,96.20
2023-03-21T20:40:21.630Z,96.20
2023-03-21T20:42:49.131Z,96.20
2023-03-21T20:45:17.298Z,96.20
2023-03-21T20:47:44.250Z,96.20
2023-03-21T20:50:13.875Z,96.20
2023-03-21T20:53:04.521Z,96.20
2023-03-21T20:55:34.210Z,96.20
2023-03-21T20:58:02.221Z,96.10
2023-03-21T21:00:29.804Z,96.20
2023-03-21T21:02:58.018Z,96.20
2023-03-21T21:05:30.714Z,96.30
2023-03-21T21:07:58.898Z,96.30
2023-03-21T21:10:26.229Z,96.40
2023-03-21T21:12:53.240Z,96.50
2023-03-21T21:15:20.121Z,96.60
2023-03-21T21:18:17.786Z,96.70
2023-03-21T21:20:36.887Z,96.80
2023-03-21T21:23:04.925Z,96.80
2023-03-21T21:25:33.475Z,96.80
2023-03-21T21:28:08.893Z,96.90
2023-03-21T21:30:38.635Z,96.90
2023-03-21T21:33:05.729Z,96.90
2023-03-21T21:35:33.638Z,96.90
2023-03-21T21:38:00.598Z,97.00
2023-03-21T21:40:27.495Z,97.10
2023-03-21T21:42:54.628Z,97.00
2023-03-21T21:45:21.576Z,97.10
2023-03-21T21:47:48.617Z,97.10
2023-03-21T21:50:15.532Z,97.10
2023-03-21T21:52:52.609Z,96.90
2023-03-21T21:55:19.767Z,96.90
2023-03-21T21:57:50.268Z,96.80
2023-03-21T22:00:19.690Z,96.70
2023-03-21T22:02:47.149Z,96.60
2023-03-21T22:05:14.079Z,96.60
2023-03-21T22:07:41.152Z,96.50
2023-03-21T22:10:08.671Z,96.50
2023-03-21T22:12:35.625Z,96.50
2023-03-21T22:15:06.884Z,96.50
2023-03-21T22:17:35.148Z,96.50
2023-03-21T22:20:06.488Z,96.50
2023-03-21T22:22:34.697Z,96.60
2023-03-21T22:25:02.490Z,96.60
2023-03-21T22:27:29.752Z,96.50
2023-03-21T22:29:56.630Z,96.60
2023-03-21T22:32:23.711Z,96.60
2023-03-21T22:34:50.635Z,96.60
2023-03-21T22:37:17.543Z,96.60
2023-03-21T22:39:44.431Z,96.70
2023-03-21T22:42:11.324Z,96.70
2023-03-21T22:44:38.279Z,96.70
2023-03-21T22:47:10.950Z,96.70
2023-03-21T22:49:39.004Z,96.60
2023-03-21T22:52:06.816Z,96.60
2023-03-21T22:54:33.779Z,96.60
2023-03-21T22:57:00.705Z,96.60
2023-03-21T22:59:28.667Z,96.70
2023-03-21T23:01:55.656Z,96.80
2023-03-21T23:04:23.770Z,96.80
2023-03-21T23:06:50.852Z,96.80
2023-03-21T23:09:17.968Z,96.70
2023-03-21T23:11:48.974Z,96.60
2023-03-21T23:14:17.921Z,96.70
2023-03-21T23:16:45.108Z,96.70
2023-03-21T23:19:12.245Z,96.70
2023-03-21T23:21:39.844Z,96.60
2023-03-21T23:24:07.978Z,96.70
2023-03-21T23:26:35.255Z,96.60
2023-03-21T23:29:02.117Z,96.60
2023-03-21T23:31:29.075Z,96.60
2023-03-21T23:33:58.923Z,96.60
2023-03-21T23:36:26.066Z,96.70
2023-03-21T23:38:53.211Z,96.60
2023-03-21T23:41:23.376Z,96.60
2023-03-21T23:43:51.076Z,96.70
2023-03-21T23:46:19.067Z,96.70
2023-03-21T23:48:46.985Z,96.70
2023-03-21T23:51:16.451Z,96.60
2023-03-21T23:53:45.530Z,96.70
2023-03-21T23:56:19.104Z,96.60
2023-03-21T23:58:46.937Z,96.60
